Flemington, MO (65650)

17:13 CDT le 27 avril 2015 (GMT -0500)
APRSWXNET | | Change Station
CLOSE
Current Station
Stations météorologiques personnelles
Location: Dunnegan, MO
Altitude: 964 ft
Stations météo à proximité

Alt. 964 ft 37.72 °N, 93.49 °W | Updated 31 minutes ago

Partiellement nuageux
Partiellement nuageux
65 ° F
Paraît 65 ° F
N
7
Vent Variable Vent de ESE
Gusts 16.0 mph

Aujourd'hui
Haut(e) -- | Bas -- ° F
--% Risque de précip.
Hier
Haut(e) -- | Bas -- ° F
Precip. -- pouce
6:23 AM 8:00 PM
Lune gibbeuse croissante, 68% visible
Pression 29.96 pouce
Visibilité 10.0 Miles terrestres
Nuages Ciel dégagé
Point de rosée 32 ° F
Humidité 29%
Précipitations pouce
Profondeur de la couche neigeuse Non disponible.
UV 4 sur 12
Pollen 10.10 sur 12
Qualité de l'air Non disponible.
Flu Activity Local Activity
METAR KSGF 272152Z 05018G23KT 10SM CLR 18/01 A2997 RMK AO2 SLP146 T01830006

More Conditions Fewer Conditions

Pression 29.96 pouce
Visibilité 10.0 Miles terrestres
Nuages Ciel dégagé
Point de rosée 32 ° F
Humidité 29%
Précipitations pouce
Profondeur de la couche neigeuse Non disponible.
UV 4 sur 12
Pollen 10.10 sur 12
Qualité de l'air Non disponible.
Flu Activity Local Activity
METAR KSGF 272152Z 05018G23KT 10SM CLR 18/01 A2997 RMK AO2 SLP146 T01830006

More Conditions Fewer Conditions

10-Day Weather Forecast

Almanac

Astronomie

Apr. 27, 2015 Lever Coucher
Temps réel
Crépuscule civil
Crépuscule nautique
Crépuscule astronomique
Lune
Durée de lumière visible
Longueur du jour
Tomorrow will be .
, % of the Moon is Illuminated

Extrêmes aujourd'hui

State Highs State Lows

Community

WunderPhotos

Upload Photos

1,817,442 Photos téléchargées !

WunderBlogs® & News

Nearby

Qualité de l'air

  Qualité de l'air Indice de la qualité de l'air Polluant
Not available.

Épaisseur de neige

Station Depth Altitude

Activité sismique

Ville Distance Mag. Time & Date
Minimum magnitude displayed is 2.5.

Températures des eaux côtières

Lieu Température

Stations

Stations météo à proximité

Emplacement de la station Température Refroidissement éolien Point de rosée Humidité Vent Precip. Alt. Mise à jour Type